Time;durP1;ratioP1;P1;durP2;ratioP2;P2;SDS_P1;SDS_P2;PMS_P1;PMS_P2;Temp;Humidity;BMP_temperature;BMP_pressure;BME280_temperature;BME280_humidity;BME280_pressure;Samples;Min_cycle;Max_cycle;Signal;HPM_P1;HPM_P2
2022/02/25 00:07:30;;;;;;;36.40;16.00;;;;;;;5.61;58.78;98084.63;434060;1268;109141;-43
2022/02/25 00:17:37;;;;;;;37.70;16.70;;;;;;;5.57;58.89;98086.87;433516;1268;97541;-41
2022/02/25 00:27:46;;;;;;;39.90;15.40;;;;;;;5.60;58.81;98080.63;433901;1267;111036;-41
2022/02/25 00:37:53;;;;;;;35.40;15.70;;;;;;;5.66;58.88;98070.98;433939;1267;108817;-42
2022/02/25 00:48:01;;;;;;;29.10;13.10;;;;;;;5.69;58.88;98071.04;433942;1268;108765;-41
2022/02/25 00:58:08;;;;;;;28.30;11.70;;;;;;;5.72;58.84;98061.92;433951;1268;98227;-41
2022/02/25 01:08:15;;;;;;;24.40;9.60;;;;;;;5.79;58.85;98055.45;434151;1268;111000;-40
2022/02/25 01:18:23;;;;;;;20.60;7.70;;;;;;;5.90;58.69;98059.63;434003;1267;108900;-41
2022/02/25 01:28:30;;;;;;;19.50;7.70;;;;;;;5.98;58.58;98056.04;434019;1268;108919;-41
2022/02/25 01:38:37;;;;;;;16.20;7.60;;;;;;;6.01;58.45;98038.56;433943;1268;97072;-40
2022/02/25 01:48:44;;;;;;;16.40;7.20;;;;;;;6.00;58.43;98037.05;433923;1267;110766;-44
2022/02/25 01:58:52;;;;;;;12.20;5.70;;;;;;;5.98;58.61;98034.92;433917;1268;107648;-41
2022/02/25 02:20:47;;;;;;;16.00;5.80;;;;;;;5.96;58.46;98028.60;433913;1267;97907;-43
2022/02/25 03:27:50;;;;;;;9.90;5.50;;;;;;;5.59;59.75;98085.15;425577;1267;10461547;-40
2022/02/25 04:02:10;;;;;;;10.60;4.70;;;;;;;5.57;60.75;98141.14;433076;1267;108356;-43
2022/02/25 04:35:28;;;;;;;5.20;2.70;;;;;;;5.49;62.93;98209.75;432758;1270;111415;-42
2022/02/25 04:45:36;;;;;;;4.00;1.20;;;;;;;5.18;64.17;98229.96;432588;1270;108832;-43
2022/02/25 05:41:48;;;;;;;2.60;1.50;;;;;;;2.99;70.91;98368.30;433212;1267;111386;-41
2022/02/25 05:51:55;;;;;;;1.60;1.30;;;;;;;2.88;70.76;98385.65;433787;1267;108940;-42
2022/02/25 07:11:29;;;;;;;5.20;2.80;;;;;;;3.30;72.14;98538.95;433802;1266;97898;-41
2022/02/25 08:05:35;;;;;;;8.60;3.90;;;;;;;3.65;72.90;98638.41;433789;1267;98020;-40
2022/02/25 08:15:42;;;;;;;9.80;4.60;;;;;;;3.74;72.77;98655.64;433884;1267;111044;-41
2022/02/25 08:25:50;;;;;;;17.10;6.00;;;;;;;3.82;72.36;98665.83;433844;1267;109128;-44
2022/02/25 08:35:57;;;;;;;8.30;3.00;;;;;;;4.04;71.46;98675.95;433190;1268;108763;-44
2022/02/25 08:46:05;;;;;;;6.00;2.80;;;;;;;4.66;70.62;98675.35;433811;1267;96974;-40
2022/02/25 09:29:49;;;;;;;3.60;1.80;;;;;;;5.80;63.36;98713.56;415329;1307;5358415;-40
2022/02/25 09:39:57;;;;;;;3.50;1.90;;;;;;;6.17;62.03;98737.48;430429;1280;95536;-41
2022/02/25 09:50:03;;;;;;;9.40;2.80;;;;;;;6.19;61.82;98738.33;432602;1271;108909;-41
2022/02/25 10:00:10;;;;;;;2.90;1.50;;;;;;;6.14;61.02;98746.31;432694;1270;108647;-41
2022/02/25 10:10:19;;;;;;;3.70;1.80;;;;;;;5.73;61.34;98758.49;432595;1270;108838;-41
2022/02/25 10:20:29;;;;;;;7.50;2.40;;;;;;;5.63;60.72;98756.02;432550;1270;94822;-43
2022/02/25 10:30:49;;;;;;;5.40;2.00;;;;;;;6.14;60.53;98752.45;432455;1271;95650;-41
2022/02/25 10:41:02;;;;;;;16.20;4.80;;;;;;;6.20;58.84;98760.83;432338;1270;107289;-42
2022/02/25 10:51:10;;;;;;;3.80;2.00;;;;;;;6.13;58.51;98766.38;432377;1271;108845;-40
2022/02/25 11:01:19;;;;;;;6.70;2.80;;;;;;;6.06;57.98;98778.61;432462;1271;108840;-42
2022/02/25 11:11:27;;;;;;;4.80;2.40;;;;;;;6.01;57.30;98772.52;432497;1270;96146;-41
2022/02/25 11:21:35;;;;;;;7.50;2.10;;;;;;;6.40;56.40;98766.04;432451;1271;95971;-41
2022/02/25 11:31:44;;;;;;;6.60;2.20;;;;;;;6.37;55.43;98775.83;432409;1271;109665;-42
2022/02/25 11:41:52;;;;;;;4.10;2.00;;;;;;;6.72;54.78;98775.06;432566;1271;108821;-41
2022/02/25 11:51:58;;;;;;;9.00;2.50;;;;;;;6.62;53.48;98769.19;432510;1270;109086;-40
2022/02/25 12:02:08;;;;;;;9.20;3.80;;;;;;;6.12;54.46;98770.45;432457;1270;95554;-41
2022/02/25 12:12:37;;;;;;;11.20;4.70;;;;;;;5.71;54.59;98773.21;432451;1270;95694;-42
2022/02/25 12:22:52;;;;;;;10.60;5.10;;;;;;;5.41;54.63;98778.91;432512;1270;110196;-39
2022/02/25 12:33:27;;;;;;;9.60;2.60;;;;;;;5.30;55.54;98787.55;432334;1270;109523;-42
2022/02/25 12:43:34;;;;;;;13.50;3.00;;;;;;;5.25;56.13;98788.54;432287;1271;108677;-41
2022/02/25 12:53:51;;;;;;;13.70;5.10;;;;;;;5.31;56.24;98796.76;432344;1270;95430;-40
2022/02/25 13:03:59;;;;;;;14.90;3.20;;;;;;;5.51;56.33;98800.12;432339;1270;95636;-42
2022/02/25 13:14:14;;;;;;;8.90;4.30;;;;;;;5.28;55.84;98806.17;432418;1270;109335;-43
2022/02/25 13:24:22;;;;;;;11.10;3.30;;;;;;;5.23;56.08;98802.67;432278;1270;109264;-42
2022/02/25 13:44:39;;;;;;;5.00;1.70;;;;;;;6.13;53.53;98800.20;432522;1270;96169;-43
2022/02/25 14:05:06;;;;;;;14.10;6.00;;;;;;;6.67;50.40;98806.19;432444;1270;109803;-41
2022/02/25 14:15:16;;;;;;;5.40;2.40;;;;;;;6.71;49.73;98816.45;432441;1270;107810;-41
2022/02/25 14:25:22;;;;;;;6.70;2.80;;;;;;;6.20;50.66;98820.29;432499;1270;108738;-40
2022/02/25 14:35:30;;;;;;;6.40;2.50;;;;;;;5.88;50.42;98824.50;432400;1271;96200;-40
2022/02/25 14:45:38;;;;;;;6.10;2.50;;;;;;;5.50;50.40;98836.09;432424;1270;95272;-44
2022/02/25 14:55:46;;;;;;;6.10;3.00;;;;;;;5.29;50.96;98838.73;432197;1270;109779;-40
2022/02/25 15:05:52;;;;;;;9.60;3.60;;;;;;;5.11;51.48;98842.77;432334;1269;109198;-44
2022/02/25 15:15:58;;;;;;;9.30;3.80;;;;;;;4.96;51.40;98851.39;432387;1270;95738;-42
2022/02/25 15:26:09;;;;;;;14.30;7.50;;;;;;;4.93;51.78;98856.85;432434;1270;95651;-41
2022/02/25 15:36:17;;;;;;;8.30;3.40;;;;;;;4.84;52.00;98858.07;432429;1269;110330;-41
2022/02/25 15:46:25;;;;;;;25.90;13.50;;;;;;;4.69;52.57;98866.98;432287;1270;108568;-40
2022/02/25 15:56:33;;;;;;;17.00;6.20;;;;;;;4.49;53.01;98866.24;432519;1270;108872;-41
2022/02/25 16:06:40;;;;;;;20.30;7.60;;;;;;;4.23;53.36;98866.59;432380;1270;95873;-41
2022/02/25 16:16:47;;;;;;;24.30;9.60;;;;;;;3.93;53.69;98869.91;432394;1269;95351;-41
2022/02/25 16:26:56;;;;;;;39.90;16.70;;;;;;;3.64;54.12;98879.08;432255;1270;109702;-40
2022/02/25 16:37:03;;;;;;;52.50;23.10;;;;;;;3.36;54.46;98889.75;432347;1271;108544;-43
2022/02/25 16:47:09;;;;;;;43.90;22.90;;;;;;;2.98;54.76;98902.98;432480;1270;108691;-40
2022/02/25 16:57:17;;;;;;;42.60;17.60;;;;;;;2.59;55.30;98915.44;432395;1270;96586;-42
2022/02/25 17:07:24;;;;;;;29.80;13.10;;;;;;;2.24;55.57;98929.08;432404;1270;95430;-42
2022/02/25 17:17:32;;;;;;;131.10;45.80;;;;;;;1.89;55.95;98953.42;432371;1270;109793;-41
2022/02/25 17:27:40;;;;;;;132.90;52.40;;;;;;;1.73;56.56;98968.39;432499;1270;107783;-41
2022/02/25 17:37:47;;;;;;;181.00;68.30;;;;;;;1.56;56.92;98974.06;432480;1270;108906;-42
2022/02/25 17:47:56;;;;;;;174.00;71.70;;;;;;;1.41;57.08;98984.16;432415;1270;95634;-43
2022/02/25 17:58:04;;;;;;;186.50;72.70;;;;;;;1.25;57.43;98991.77;432143;1273;95696;-43
2022/02/25 18:08:11;;;;;;;242.90;94.70;;;;;;;1.09;57.60;98996.73;432455;1270;109740;-40
2022/02/25 18:18:18;;;;;;;245.30;97.10;;;;;;;0.94;58.03;99009.39;432331;1270;108582;-44
2022/02/25 18:28:25;;;;;;;269.10;106.40;;;;;;;0.73;58.25;99025.33;432335;1270;108802;-40
2022/02/25 18:38:53;;;;;;;298.60;114.50;;;;;;;0.45;58.68;99046.67;432519;1270;96147;-42
2022/02/25 18:49:00;;;;;;;276.10;105.30;;;;;;;0.27;59.19;99060.52;432342;1269;96205;-40
2022/02/25 18:59:09;;;;;;;234.90;91.00;;;;;;;0.30;59.24;99073.19;432473;1270;108807;-42
2022/02/25 19:09:16;;;;;;;244.30;91.60;;;;;;;0.46;59.51;99077.30;432460;1270;108730;-40
2022/02/25 19:19:23;;;;;;;306.90;109.10;;;;;;;0.53;59.79;99076.25;432423;1270;96135;-40
2022/02/25 19:29:31;;;;;;;198.30;71.30;;;;;;;0.70;60.15;99083.88;432261;1269;96138;-41
2022/02/25 19:39:37;;;;;;;175.10;64.30;;;;;;;0.99;60.39;99089.93;432216;1270;109448;-42
2022/02/25 19:59:56;;;;;;;148.80;56.80;;;;;;;1.21;60.51;99105.34;432442;1270;109664;-40
2022/02/25 20:10:09;;;;;;;164.30;65.50;;;;;;;1.21;60.76;99120.66;432308;1270;96125;-43
2022/02/25 20:20:14;;;;;;;;;;;;;;;1.22;60.91;99124.50;432346;1270;95761;-41
2022/02/25 20:30:22;;;;;;;249.70;76.80;;;;;;;1.29;61.17;99125.62;432287;1273;108123;-41
2022/02/25 20:40:29;;;;;;;171.60;60.80;;;;;;;1.38;61.23;99120.88;432927;1270;108889;-40
2022/02/25 20:50:37;;;;;;;113.20;46.10;;;;;;;1.48;61.48;99129.29;433013;1271;107132;-42
2022/02/25 21:10:50;;;;;;;117.20;44.70;;;;;;;1.61;61.30;99142.01;433058;1271;95567;-40
2022/02/25 21:20:57;;;;;;;122.00;50.00;;;;;;;1.56;61.50;99150.25;433170;1270;109973;-41
2022/02/25 21:31:03;;;;;;;126.90;52.10;;;;;;;1.52;61.69;99154.26;428434;1270;5386289;-43
2022/02/25 21:41:10;;;;;;;109.70;45.00;;;;;;;1.48;61.60;99154.19;432313;1270;97279;-41
2022/02/25 21:51:18;;;;;;;82.40;34.50;;;;;;;1.51;61.92;99154.21;432319;1269;96138;-41
2022/02/25 22:01:26;;;;;;;74.00;28.50;;;;;;;1.56;61.88;99151.23;432304;1270;109918;-41
2022/02/25 22:11:36;;;;;;;73.40;32.60;;;;;;;1.62;61.95;99147.71;432481;1270;108894;-40
2022/02/25 22:21:44;;;;;;;62.80;27.60;;;;;;;1.65;61.77;99154.14;432415;1270;108929;-40
2022/02/25 22:31:51;;;;;;;51.20;24.10;;;;;;;1.69;62.05;99157.55;432525;1269;96556;-41
2022/02/25 22:41:58;;;;;;;56.80;25.30;;;;;;;1.68;61.92;99156.09;432397;1270;96577;-41
2022/02/25 23:02:31;;;;;;;51.90;21.40;;;;;;;1.74;62.00;99162.06;432346;1269;108888;-40
2022/02/25 23:12:38;;;;;;;54.00;21.80;;;;;;;1.73;62.27;99169.26;432372;1270;95283;-45
2022/02/25 23:32:52;;;;;;;55.40;21.50;;;;;;;1.45;62.62;99178.95;432429;1269;109917;-42
2022/02/25 23:43:00;;;;;;;45.40;19.00;;;;;;;1.36;62.79;99187.21;432463;1270;106368;-43
2022/02/25 23:53:09;;;;;;;40.30;18.20;;;;;;;1.30;62.89;99196.38;432368;1270;109044;-40
